sensor_id;sensor_type;location;lat;lon;timestamp;P1;durP1;ratioP1;P2;durP2;ratioP2
11829;SDS011;5972;42.134;24.718;2023-03-01T00:00:03;2.83;;;2.63;;
11829;SDS011;5972;42.134;24.718;2023-03-01T00:02:32;2.80;;;2.60;;
11829;SDS011;5972;42.134;24.718;2023-03-01T00:04:59;3.10;;;2.80;;
11829;SDS011;5972;42.134;24.718;2023-03-01T00:07:26;3.17;;;2.60;;
11829;SDS011;5972;42.134;24.718;2023-03-01T00:09:54;2.87;;;2.63;;
11829;SDS011;5972;42.134;24.718;2023-03-01T00:12:21;2.67;;;2.43;;
11829;SDS011;5972;42.134;24.718;2023-03-01T00:14:48;2.40;;;2.03;;
11829;SDS011;5972;42.134;24.718;2023-03-01T00:17:15;2.90;;;2.70;;
11829;SDS011;5972;42.134;24.718;2023-03-01T00:19:42;2.30;;;2.10;;
11829;SDS011;5972;42.134;24.718;2023-03-01T00:22:09;1.83;;;1.73;;
11829;SDS011;5972;42.134;24.718;2023-03-01T00:24:36;2.70;;;2.40;;
11829;SDS011;5972;42.134;24.718;2023-03-01T00:27:04;2.40;;;2.20;;
11829;SDS011;5972;42.134;24.718;2023-03-01T00:29:31;3.53;;;2.50;;
11829;SDS011;5972;42.134;24.718;2023-03-01T00:31:58;2.63;;;2.43;;
11829;SDS011;5972;42.134;24.718;2023-03-01T00:34:26;2.20;;;2.00;;
11829;SDS011;5972;42.134;24.718;2023-03-01T00:36:52;2.50;;;2.30;;
11829;SDS011;5972;42.134;24.718;2023-03-01T00:39:19;2.70;;;2.50;;
11829;SDS011;5972;42.134;24.718;2023-03-01T00:41:46;3.63;;;3.10;;
11829;SDS011;5972;42.134;24.718;2023-03-01T00:44:15;3.57;;;3.27;;
11829;SDS011;5972;42.134;24.718;2023-03-01T00:46:42;3.67;;;3.07;;
11829;SDS011;5972;42.134;24.718;2023-03-01T00:49:09;3.27;;;2.90;;
11829;SDS011;5972;42.134;24.718;2023-03-01T00:51:36;4.23;;;3.00;;
11829;SDS011;5972;42.134;24.718;2023-03-01T00:54:04;2.70;;;2.50;;
11829;SDS011;5972;42.134;24.718;2023-03-01T00:56:31;3.07;;;2.53;;
11829;SDS011;5972;42.134;24.718;2023-03-01T00:58:58;3.00;;;2.33;;
11829;SDS011;5972;42.134;24.718;2023-03-01T01:01:27;2.40;;;2.20;;
11829;SDS011;5972;42.134;24.718;2023-03-01T01:03:56;2.27;;;2.07;;
11829;SDS011;5972;42.134;24.718;2023-03-01T01:06:25;2.30;;;2.10;;
11829;SDS011;5972;42.134;24.718;2023-03-01T01:08:54;2.40;;;2.20;;
11829;SDS011;5972;42.134;24.718;2023-03-01T01:11:21;2.13;;;2.03;;
11829;SDS011;5972;42.134;24.718;2023-03-01T01:13:50;2.43;;;2.23;;
11829;SDS011;5972;42.134;24.718;2023-03-01T01:16:19;1.93;;;1.80;;
11829;SDS011;5972;42.134;24.718;2023-03-01T01:18:49;2.47;;;2.27;;
11829;SDS011;5972;42.134;24.718;2023-03-01T01:21:16;2.50;;;2.30;;
11829;SDS011;5972;42.134;24.718;2023-03-01T01:23:45;2.67;;;2.47;;
11829;SDS011;5972;42.134;24.718;2023-03-01T01:26:14;2.40;;;2.20;;
11829;SDS011;5972;42.134;24.718;2023-03-01T01:28:43;2.30;;;2.20;;
11829;SDS011;5972;42.134;24.718;2023-03-01T01:31:10;2.40;;;2.20;;
11829;SDS011;5972;42.134;24.718;2023-03-01T01:33:37;2.63;;;2.30;;
11829;SDS011;5972;42.134;24.718;2023-03-01T01:36:06;2.50;;;2.30;;
11829;SDS011;5972;42.134;24.718;2023-03-01T01:38:34;3.20;;;2.90;;
11829;SDS011;5972;42.134;24.718;2023-03-01T01:41:02;3.97;;;3.57;;
11829;SDS011;5972;42.134;24.718;2023-03-01T01:43:30;2.93;;;2.57;;
11829;SDS011;5972;42.134;24.718;2023-03-01T01:46:00;2.30;;;2.10;;
11829;SDS011;5972;42.134;24.718;2023-03-01T01:48:29;2.70;;;2.50;;
11829;SDS011;5972;42.134;24.718;2023-03-01T01:51:07;2.80;;;2.60;;
11829;SDS011;5972;42.134;24.718;2023-03-01T01:53:38;2.87;;;2.67;;
11829;SDS011;5972;42.134;24.718;2023-03-01T01:56:06;1.73;;;1.63;;
11829;SDS011;5972;42.134;24.718;2023-03-01T01:58:38;3.47;;;2.30;;
11829;SDS011;5972;42.134;24.718;2023-03-01T02:01:05;3.43;;;2.53;;
11829;SDS011;5972;42.134;24.718;2023-03-01T02:03:33;1.93;;;1.83;;
11829;SDS011;5972;42.134;24.718;2023-03-01T02:06:10;3.43;;;2.10;;
11829;SDS011;5972;42.134;24.718;2023-03-01T02:08:42;2.30;;;2.10;;
11829;SDS011;5972;42.134;24.718;2023-03-01T02:11:10;4.37;;;2.80;;
11829;SDS011;5972;42.134;24.718;2023-03-01T02:13:39;3.03;;;2.83;;
11829;SDS011;5972;42.134;24.718;2023-03-01T02:16:08;3.10;;;2.80;;
11829;SDS011;5972;42.134;24.718;2023-03-01T02:18:37;3.00;;;2.80;;
11829;SDS011;5972;42.134;24.718;2023-03-01T02:21:11;3.67;;;3.37;;
11829;SDS011;5972;42.134;24.718;2023-03-01T02:23:49;3.53;;;3.23;;
11829;SDS011;5972;42.134;24.718;2023-03-01T02:26:18;3.67;;;3.37;;
11829;SDS011;5972;42.134;24.718;2023-03-01T02:28:51;5.63;;;3.97;;
11829;SDS011;5972;42.134;24.718;2023-03-01T02:31:20;3.70;;;3.27;;
11829;SDS011;5972;42.134;24.718;2023-03-01T02:34:04;4.33;;;3.93;;
11829;SDS011;5972;42.134;24.718;2023-03-01T02:36:34;5.07;;;4.40;;
11829;SDS011;5972;42.134;24.718;2023-03-01T02:39:04;5.20;;;4.50;;
11829;SDS011;5972;42.134;24.718;2023-03-01T02:41:39;4.60;;;3.97;;
11829;SDS011;5972;42.134;24.718;2023-03-01T02:44:10;6.03;;;4.57;;
11829;SDS011;5972;42.134;24.718;2023-03-01T02:46:41;4.77;;;4.37;;
11829;SDS011;5972;42.134;24.718;2023-03-01T02:49:18;5.03;;;4.57;;
11829;SDS011;5972;42.134;24.718;2023-03-01T02:51:48;4.67;;;4.27;;
11829;SDS011;5972;42.134;24.718;2023-03-01T02:54:28;6.20;;;5.27;;
11829;SDS011;5972;42.134;24.718;2023-03-01T02:56:59;5.17;;;4.67;;
11829;SDS011;5972;42.134;24.718;2023-03-01T02:59:29;4.40;;;3.80;;
11829;SDS011;5972;42.134;24.718;2023-03-01T03:01:59;4.70;;;4.20;;
11829;SDS011;5972;42.134;24.718;2023-03-01T03:04:27;4.27;;;3.70;;
11829;SDS011;5972;42.134;24.718;2023-03-01T03:06:54;4.50;;;4.10;;
11829;SDS011;5972;42.134;24.718;2023-03-01T03:09:21;4.50;;;4.20;;
11829;SDS011;5972;42.134;24.718;2023-03-01T03:11:48;3.97;;;3.60;;
11829;SDS011;5972;42.134;24.718;2023-03-01T03:14:15;5.00;;;4.60;;
11829;SDS011;5972;42.134;24.718;2023-03-01T03:16:45;5.40;;;4.90;;
11829;SDS011;5972;42.134;24.718;2023-03-01T03:19:13;4.67;;;4.27;;
11829;SDS011;5972;42.134;24.718;2023-03-01T03:21:41;5.23;;;4.60;;
11829;SDS011;5972;42.134;24.718;2023-03-01T03:24:08;5.67;;;4.50;;
11829;SDS011;5972;42.134;24.718;2023-03-01T03:26:35;4.07;;;3.77;;
11829;SDS011;5972;42.134;24.718;2023-03-01T03:29:03;4.47;;;4.07;;
11829;SDS011;5972;42.134;24.718;2023-03-01T03:31:29;3.53;;;3.23;;
11829;SDS011;5972;42.134;24.718;2023-03-01T03:33:58;4.07;;;2.77;;
11829;SDS011;5972;42.134;24.718;2023-03-01T03:36:25;2.80;;;2.60;;
11829;SDS011;5972;42.134;24.718;2023-03-01T03:38:52;3.23;;;2.90;;
11829;SDS011;5972;42.134;24.718;2023-03-01T03:41:19;3.20;;;3.00;;
11829;SDS011;5972;42.134;24.718;2023-03-01T03:43:46;3.10;;;2.80;;
11829;SDS011;5972;42.134;24.718;2023-03-01T03:46:14;3.03;;;2.83;;
11829;SDS011;5972;42.134;24.718;2023-03-01T03:48:43;3.10;;;2.83;;
11829;SDS011;5972;42.134;24.718;2023-03-01T03:51:12;2.97;;;2.77;;
11829;SDS011;5972;42.134;24.718;2023-03-01T03:53:40;3.30;;;3.00;;
11829;SDS011;5972;42.134;24.718;2023-03-01T03:56:08;3.70;;;3.30;;
11829;SDS011;5972;42.134;24.718;2023-03-01T04:01:21;3.30;;;3.10;;
11829;SDS011;5972;42.134;24.718;2023-03-01T04:04:06;3.27;;;3.07;;
11829;SDS011;5972;42.134;24.718;2023-03-01T04:06:34;3.03;;;2.83;;
11829;SDS011;5972;42.134;24.718;2023-03-01T04:09:02;3.37;;;3.07;;
11829;SDS011;5972;42.134;24.718;2023-03-01T04:11:29;3.20;;;2.90;;
11829;SDS011;5972;42.134;24.718;2023-03-01T04:13:56;3.77;;;3.40;;
11829;SDS011;5972;42.134;24.718;2023-03-01T04:16:25;4.27;;;3.87;;
11829;SDS011;5972;42.134;24.718;2023-03-01T04:18:52;4.20;;;3.80;;
11829;SDS011;5972;42.134;24.718;2023-03-01T04:21:21;5.33;;;4.80;;
11829;SDS011;5972;42.134;24.718;2023-03-01T04:23:50;4.67;;;4.23;;
11829;SDS011;5972;42.134;24.718;2023-03-01T04:26:17;6.03;;;5.43;;
11829;SDS011;5972;42.134;24.718;2023-03-01T04:28:44;8.70;;;6.80;;
11829;SDS011;5972;42.134;24.718;2023-03-01T04:31:14;7.77;;;7.07;;
11829;SDS011;5972;42.134;24.718;2023-03-01T04:33:44;7.37;;;6.67;;
11829;SDS011;5972;42.134;24.718;2023-03-01T04:36:13;9.50;;;6.63;;
11829;SDS011;5972;42.134;24.718;2023-03-01T04:38:42;7.20;;;6.50;;
11829;SDS011;5972;42.134;24.718;2023-03-01T04:41:14;6.20;;;5.27;;
11829;SDS011;5972;42.134;24.718;2023-03-01T04:43:42;7.17;;;6.43;;
11829;SDS011;5972;42.134;24.718;2023-03-01T04:46:10;7.63;;;6.90;;
11829;SDS011;5972;42.134;24.718;2023-03-01T04:48:40;6.73;;;6.03;;
11829;SDS011;5972;42.134;24.718;2023-03-01T04:51:08;7.93;;;6.83;;
11829;SDS011;5972;42.134;24.718;2023-03-01T04:53:38;7.13;;;6.43;;
11829;SDS011;5972;42.134;24.718;2023-03-01T04:56:06;8.37;;;6.23;;
11829;SDS011;5972;42.134;24.718;2023-03-01T04:58:34;8.47;;;5.10;;
11829;SDS011;5972;42.134;24.718;2023-03-01T05:01:01;6.70;;;5.67;;
11829;SDS011;5972;42.134;24.718;2023-03-01T05:03:40;7.27;;;5.37;;
11829;SDS011;5972;42.134;24.718;2023-03-01T05:06:08;6.80;;;6.00;;
11829;SDS011;5972;42.134;24.718;2023-03-01T05:08:36;6.17;;;5.57;;
11829;SDS011;5972;42.134;24.718;2023-03-01T05:11:03;4.90;;;4.40;;
11829;SDS011;5972;42.134;24.718;2023-03-01T05:13:31;5.43;;;4.93;;
11829;SDS011;5972;42.134;24.718;2023-03-01T05:16:00;5.90;;;4.97;;
11829;SDS011;5972;42.134;24.718;2023-03-01T05:18:30;7.47;;;6.57;;
11829;SDS011;5972;42.134;24.718;2023-03-01T05:21:01;6.70;;;5.97;;
11829;SDS011;5972;42.134;24.718;2023-03-01T05:23:29;7.23;;;6.50;;
11829;SDS011;5972;42.134;24.718;2023-03-01T05:25:57;8.50;;;7.20;;
11829;SDS011;5972;42.134;24.718;2023-03-01T05:28:25;9.77;;;7.63;;
11829;SDS011;5972;42.134;24.718;2023-03-01T05:30:53;13.73;;;12.33;;
11829;SDS011;5972;42.134;24.718;2023-03-01T05:33:21;10.80;;;9.77;;
11829;SDS011;5972;42.134;24.718;2023-03-01T05:35:49;12.40;;;11.17;;
11829;SDS011;5972;42.134;24.718;2023-03-01T05:38:18;17.30;;;12.53;;
11829;SDS011;5972;42.134;24.718;2023-03-01T05:40:48;16.50;;;13.63;;
11829;SDS011;5972;42.134;24.718;2023-03-01T05:43:16;18.50;;;14.77;;
11829;SDS011;5972;42.134;24.718;2023-03-01T05:45:43;15.83;;;14.23;;
11829;SDS011;5972;42.134;24.718;2023-03-01T05:48:10;14.33;;;12.30;;
11829;SDS011;5972;42.134;24.718;2023-03-01T05:50:40;12.33;;;11.03;;
11829;SDS011;5972;42.134;24.718;2023-03-01T05:53:09;15.43;;;13.30;;
11829;SDS011;5972;42.134;24.718;2023-03-01T05:55:37;15.97;;;12.90;;
11829;SDS011;5972;42.134;24.718;2023-03-01T05:58:06;12.70;;;11.17;;
11829;SDS011;5972;42.134;24.718;2023-03-01T06:00:34;13.07;;;11.17;;
11829;SDS011;5972;42.134;24.718;2023-03-01T06:03:01;14.87;;;13.27;;
11829;SDS011;5972;42.134;24.718;2023-03-01T06:05:28;15.93;;;13.67;;
11829;SDS011;5972;42.134;24.718;2023-03-01T06:07:57;51.20;;;26.73;;
11829;SDS011;5972;42.134;24.718;2023-03-01T06:10:25;20.20;;;14.83;;
11829;SDS011;5972;42.134;24.718;2023-03-01T06:12:52;14.87;;;13.37;;
11829;SDS011;5972;42.134;24.718;2023-03-01T06:15:20;12.63;;;11.33;;
11829;SDS011;5972;42.134;24.718;2023-03-01T06:17:47;12.97;;;11.37;;
11829;SDS011;5972;42.134;24.718;2023-03-01T06:20:15;13.00;;;11.70;;
11829;SDS011;5972;42.134;24.718;2023-03-01T06:22:43;13.50;;;11.73;;
11829;SDS011;5972;42.134;24.718;2023-03-01T06:25:12;14.17;;;11.53;;
11829;SDS011;5972;42.134;24.718;2023-03-01T06:27:41;13.60;;;10.87;;
11829;SDS011;5972;42.134;24.718;2023-03-01T06:30:09;10.07;;;7.97;;
11829;SDS011;5972;42.134;24.718;2023-03-01T06:32:39;10.00;;;7.80;;
11829;SDS011;5972;42.134;24.718;2023-03-01T06:35:07;9.30;;;8.00;;
11829;SDS011;5972;42.134;24.718;2023-03-01T06:37:35;13.83;;;10.03;;
11829;SDS011;5972;42.134;24.718;2023-03-01T06:40:02;16.43;;;9.70;;
11829;SDS011;5972;42.134;24.718;2023-03-01T06:42:35;11.23;;;8.13;;
11829;SDS011;5972;42.134;24.718;2023-03-01T06:45:02;9.40;;;7.80;;
11829;SDS011;5972;42.134;24.718;2023-03-01T06:47:30;8.53;;;7.73;;
11829;SDS011;5972;42.134;24.718;2023-03-01T06:49:58;7.67;;;6.43;;
11829;SDS011;5972;42.134;24.718;2023-03-01T06:52:25;7.47;;;5.10;;
11829;SDS011;5972;42.134;24.718;2023-03-01T06:54:52;5.57;;;4.60;;
11829;SDS011;5972;42.134;24.718;2023-03-01T06:57:19;7.07;;;5.07;;
11829;SDS011;5972;42.134;24.718;2023-03-01T06:59:47;7.10;;;5.50;;
11829;SDS011;5972;42.134;24.718;2023-03-01T07:02:14;5.03;;;4.50;;
11829;SDS011;5972;42.134;24.718;2023-03-01T07:04:42;5.60;;;5.00;;
11829;SDS011;5972;42.134;24.718;2023-03-01T07:07:09;20.03;;;11.33;;
11829;SDS011;5972;42.134;24.718;2023-03-01T07:09:36;10.50;;;6.63;;
11829;SDS011;5972;42.134;24.718;2023-03-01T07:12:03;8.93;;;4.97;;
11829;SDS011;5972;42.134;24.718;2023-03-01T07:14:31;5.33;;;4.83;;
11829;SDS011;5972;42.134;24.718;2023-03-01T07:16:59;5.30;;;4.80;;
11829;SDS011;5972;42.134;24.718;2023-03-01T07:19:26;6.63;;;5.93;;
11829;SDS011;5972;42.134;24.718;2023-03-01T07:21:53;7.47;;;5.70;;
11829;SDS011;5972;42.134;24.718;2023-03-01T07:24:20;4.60;;;4.20;;
11829;SDS011;5972;42.134;24.718;2023-03-01T07:26:48;6.83;;;3.90;;
11829;SDS011;5972;42.134;24.718;2023-03-01T07:29:15;3.80;;;3.50;;
11829;SDS011;5972;42.134;24.718;2023-03-01T07:31:43;3.97;;;3.50;;
11829;SDS011;5972;42.134;24.718;2023-03-01T07:34:12;4.57;;;3.60;;
11829;SDS011;5972;42.134;24.718;2023-03-01T07:36:39;14.50;;;8.73;;
11829;SDS011;5972;42.134;24.718;2023-03-01T07:39:08;18.63;;;9.83;;
11829;SDS011;5972;42.134;24.718;2023-03-01T07:41:36;5.43;;;4.20;;
11829;SDS011;5972;42.134;24.718;2023-03-01T07:44:03;6.50;;;4.83;;
11829;SDS011;5972;42.134;24.718;2023-03-01T07:46:30;5.43;;;4.57;;
11829;SDS011;5972;42.134;24.718;2023-03-01T07:48:57;8.77;;;6.77;;
11829;SDS011;5972;42.134;24.718;2023-03-01T07:51:26;6.97;;;4.90;;
11829;SDS011;5972;42.134;24.718;2023-03-01T07:53:53;6.63;;;6.03;;
11829;SDS011;5972;42.134;24.718;2023-03-01T07:56:20;8.17;;;7.00;;
11829;SDS011;5972;42.134;24.718;2023-03-01T07:58:47;9.23;;;6.23;;
11829;SDS011;5972;42.134;24.718;2023-03-01T08:01:14;5.93;;;4.70;;
11829;SDS011;5972;42.134;24.718;2023-03-01T08:03:42;4.67;;;3.37;;
11829;SDS011;5972;42.134;24.718;2023-03-01T08:06:10;17.20;;;9.20;;
11829;SDS011;5972;42.134;24.718;2023-03-01T08:08:39;10.07;;;5.73;;
11829;SDS011;5972;42.134;24.718;2023-03-01T08:11:07;4.23;;;3.83;;
11829;SDS011;5972;42.134;24.718;2023-03-01T08:13:36;4.27;;;3.43;;
11829;SDS011;5972;42.134;24.718;2023-03-01T08:16:03;2.40;;;2.20;;
11829;SDS011;5972;42.134;24.718;2023-03-01T08:18:31;2.53;;;2.33;;
11829;SDS011;5972;42.134;24.718;2023-03-01T08:21:01;6.43;;;2.80;;
11829;SDS011;5972;42.134;24.718;2023-03-01T08:23:28;4.60;;;3.27;;
11829;SDS011;5972;42.134;24.718;2023-03-01T08:26:04;4.90;;;3.80;;
11829;SDS011;5972;42.134;24.718;2023-03-01T08:28:32;6.50;;;4.73;;
11829;SDS011;5972;42.134;24.718;2023-03-01T08:30:59;4.40;;;3.73;;
11829;SDS011;5972;42.134;24.718;2023-03-01T08:33:26;3.87;;;2.73;;
11829;SDS011;5972;42.134;24.718;2023-03-01T08:36:01;9.57;;;6.03;;
11829;SDS011;5972;42.134;24.718;2023-03-01T08:38:29;12.50;;;7.07;;
11829;SDS011;5972;42.134;24.718;2023-03-01T08:40:58;4.83;;;3.97;;
11829;SDS011;5972;42.134;24.718;2023-03-01T08:43:27;6.23;;;3.47;;
11829;SDS011;5972;42.134;24.718;2023-03-01T08:45:54;6.57;;;3.53;;
11829;SDS011;5972;42.134;24.718;2023-03-01T08:48:21;5.37;;;3.77;;
11829;SDS011;5972;42.134;24.718;2023-03-01T08:50:48;3.47;;;2.80;;
11829;SDS011;5972;42.134;24.718;2023-03-01T08:53:15;4.30;;;3.90;;
11829;SDS011;5972;42.134;24.718;2023-03-01T08:55:42;7.20;;;5.60;;
11829;SDS011;5972;42.134;24.718;2023-03-01T08:58:09;7.30;;;5.97;;
11829;SDS011;5972;42.134;24.718;2023-03-01T09:00:37;4.70;;;4.03;;
11829;SDS011;5972;42.134;24.718;2023-03-01T09:03:05;4.00;;;3.60;;
11829;SDS011;5972;42.134;24.718;2023-03-01T09:05:32;4.63;;;4.17;;
11829;SDS011;5972;42.134;24.718;2023-03-01T09:07:59;5.57;;;3.97;;
11829;SDS011;5972;42.134;24.718;2023-03-01T09:10:26;10.33;;;4.90;;
11829;SDS011;5972;42.134;24.718;2023-03-01T09:12:53;3.50;;;3.20;;
11829;SDS011;5972;42.134;24.718;2023-03-01T09:15:20;4.90;;;3.50;;
11829;SDS011;5972;42.134;24.718;2023-03-01T09:17:48;4.70;;;3.97;;
11829;SDS011;5972;42.134;24.718;2023-03-01T09:20:15;3.03;;;2.37;;
11829;SDS011;5972;42.134;24.718;2023-03-01T09:22:42;4.13;;;3.03;;
11829;SDS011;5972;42.134;24.718;2023-03-01T09:25:09;4.13;;;3.17;;
11829;SDS011;5972;42.134;24.718;2023-03-01T09:27:36;3.53;;;3.07;;
11829;SDS011;5972;42.134;24.718;2023-03-01T09:30:03;4.17;;;3.27;;
11829;SDS011;5972;42.134;24.718;2023-03-01T09:32:31;6.47;;;3.37;;
11829;SDS011;5972;42.134;24.718;2023-03-01T09:34:59;3.87;;;3.00;;
11829;SDS011;5972;42.134;24.718;2023-03-01T09:37:32;2.67;;;2.47;;
11829;SDS011;5972;42.134;24.718;2023-03-01T09:40:00;5.63;;;2.60;;
11829;SDS011;5972;42.134;24.718;2023-03-01T09:42:28;4.13;;;3.43;;
11829;SDS011;5972;42.134;24.718;2023-03-01T09:44:59;4.70;;;3.80;;
11829;SDS011;5972;42.134;24.718;2023-03-01T09:47:30;3.97;;;3.60;;
11829;SDS011;5972;42.134;24.718;2023-03-01T09:50:04;4.57;;;4.17;;
11829;SDS011;5972;42.134;24.718;2023-03-01T09:52:38;4.53;;;4.03;;
11829;SDS011;5972;42.134;24.718;2023-03-01T09:55:08;6.17;;;3.87;;
11829;SDS011;5972;42.134;24.718;2023-03-01T09:57:41;7.33;;;6.40;;
11829;SDS011;5972;42.134;24.718;2023-03-01T10:00:19;5.73;;;4.90;;
11829;SDS011;5972;42.134;24.718;2023-03-01T10:02:57;7.03;;;3.63;;
11829;SDS011;5972;42.134;24.718;2023-03-01T10:05:33;5.53;;;4.10;;
11829;SDS011;5972;42.134;24.718;2023-03-01T10:08:24;4.83;;;4.00;;
11829;SDS011;5972;42.134;24.718;2023-03-01T10:10:56;7.07;;;3.67;;
11829;SDS011;5972;42.134;24.718;2023-03-01T10:13:25;4.80;;;3.40;;
11829;SDS011;5972;42.134;24.718;2023-03-01T10:16:00;4.20;;;3.80;;
11829;SDS011;5972;42.134;24.718;2023-03-01T10:18:31;3.50;;;3.20;;
11829;SDS011;5972;42.134;24.718;2023-03-01T10:21:07;3.57;;;3.03;;
11829;SDS011;5972;42.134;24.718;2023-03-01T10:23:41;3.50;;;3.20;;
11829;SDS011;5972;42.134;24.718;2023-03-01T10:26:12;2.80;;;2.37;;
11829;SDS011;5972;42.134;24.718;2023-03-01T10:28:54;4.20;;;2.50;;
11829;SDS011;5972;42.134;24.718;2023-03-01T10:31:38;2.23;;;2.03;;
11829;SDS011;5972;42.134;24.718;2023-03-01T10:34:09;4.10;;;3.70;;
11829;SDS011;5972;42.134;24.718;2023-03-01T10:36:41;6.90;;;4.17;;
11829;SDS011;5972;42.134;24.718;2023-03-01T10:39:13;6.40;;;5.13;;
11829;SDS011;5972;42.134;24.718;2023-03-01T10:41:52;6.33;;;5.37;;
11829;SDS011;5972;42.134;24.718;2023-03-01T10:44:45;6.97;;;4.40;;
11829;SDS011;5972;42.134;24.718;2023-03-01T10:47:14;3.27;;;2.83;;
11829;SDS011;5972;42.134;24.718;2023-03-01T10:52:55;6.47;;;3.60;;
11829;SDS011;5972;42.134;24.718;2023-03-01T10:55:24;3.70;;;3.07;;
11829;SDS011;5972;42.134;24.718;2023-03-01T10:58:09;3.77;;;3.03;;
11829;SDS011;5972;42.134;24.718;2023-03-01T11:00:48;3.63;;;3.07;;
11829;SDS011;5972;42.134;24.718;2023-03-01T11:03:18;3.83;;;3.27;;
11829;SDS011;5972;42.134;24.718;2023-03-01T11:05:55;4.63;;;3.70;;
11829;SDS011;5972;42.134;24.718;2023-03-01T11:08:40;3.10;;;2.80;;
11829;SDS011;5972;42.134;24.718;2023-03-01T11:13:58;4.50;;;3.40;;
11829;SDS011;5972;42.134;24.718;2023-03-01T11:16:31;5.10;;;3.73;;
11829;SDS011;5972;42.134;24.718;2023-03-01T11:19:03;5.27;;;4.60;;
11829;SDS011;5972;42.134;24.718;2023-03-01T11:21:42;5.90;;;5.30;;
11829;SDS011;5972;42.134;24.718;2023-03-01T11:24:18;8.73;;;5.57;;
11829;SDS011;5972;42.134;24.718;2023-03-01T11:26:47;5.93;;;5.30;;
11829;SDS011;5972;42.134;24.718;2023-03-01T11:29:21;10.33;;;6.03;;
11829;SDS011;5972;42.134;24.718;2023-03-01T11:31:55;5.07;;;4.57;;
11829;SDS011;5972;42.134;24.718;2023-03-01T11:34:35;5.87;;;5.00;;
11829;SDS011;5972;42.134;24.718;2023-03-01T11:37:12;3.73;;;2.50;;
11829;SDS011;5972;42.134;24.718;2023-03-01T11:39:55;4.30;;;3.07;;
11829;SDS011;5972;42.134;24.718;2023-03-01T11:42:32;3.50;;;3.20;;
11829;SDS011;5972;42.134;24.718;2023-03-01T11:45:10;4.07;;;3.67;;
11829;SDS011;5972;42.134;24.718;2023-03-01T11:47:42;4.33;;;3.43;;
11829;SDS011;5972;42.134;24.718;2023-03-01T11:50:25;6.60;;;4.17;;
11829;SDS011;5972;42.134;24.718;2023-03-01T11:55:58;6.17;;;5.57;;
11829;SDS011;5972;42.134;24.718;2023-03-01T11:58:38;6.07;;;5.47;;
11829;SDS011;5972;42.134;24.718;2023-03-01T12:01:17;6.23;;;5.57;;
11829;SDS011;5972;42.134;24.718;2023-03-01T12:06:55;6.93;;;4.70;;
11829;SDS011;5972;42.134;24.718;2023-03-01T12:09:27;6.70;;;5.40;;
11829;SDS011;5972;42.134;24.718;2023-03-01T12:12:09;5.63;;;4.43;;
11829;SDS011;5972;42.134;24.718;2023-03-01T12:14:55;4.20;;;3.80;;
11829;SDS011;5972;42.134;24.718;2023-03-01T12:17:46;4.50;;;3.70;;
11829;SDS011;5972;42.134;24.718;2023-03-01T12:20:27;4.00;;;3.40;;
11829;SDS011;5972;42.134;24.718;2023-03-01T12:25:55;3.10;;;2.80;;
11829;SDS011;5972;42.134;24.718;2023-03-01T12:28:38;2.90;;;2.67;;
11829;SDS011;5972;42.134;24.718;2023-03-01T12:31:35;3.90;;;3.50;;
11829;SDS011;5972;42.134;24.718;2023-03-01T12:34:39;4.20;;;3.50;;
11829;SDS011;5972;42.134;24.718;2023-03-01T12:37:29;4.93;;;4.03;;
11829;SDS011;5972;42.134;24.718;2023-03-01T12:40:17;4.30;;;3.87;;
11829;SDS011;5972;42.134;24.718;2023-03-01T12:43:03;4.77;;;3.80;;
11829;SDS011;5972;42.134;24.718;2023-03-01T12:45:45;4.90;;;3.57;;
11829;SDS011;5972;42.134;24.718;2023-03-01T12:48:28;3.47;;;3.10;;
11829;SDS011;5972;42.134;24.718;2023-03-01T12:51:06;4.17;;;3.10;;
11829;SDS011;5972;42.134;24.718;2023-03-01T12:53:37;3.70;;;2.60;;
11829;SDS011;5972;42.134;24.718;2023-03-01T12:56:07;3.10;;;2.43;;
11829;SDS011;5972;42.134;24.718;2023-03-01T12:58:39;3.17;;;2.10;;
11829;SDS011;5972;42.134;24.718;2023-03-01T13:01:21;3.03;;;2.70;;
11829;SDS011;5972;42.134;24.718;2023-03-01T13:04:01;2.63;;;2.43;;
11829;SDS011;5972;42.134;24.718;2023-03-01T13:06:45;1.83;;;1.60;;
11829;SDS011;5972;42.134;24.718;2023-03-01T13:09:23;1.93;;;1.70;;
11829;SDS011;5972;42.134;24.718;2023-03-01T13:11:56;1.50;;;1.40;;
11829;SDS011;5972;42.134;24.718;2023-03-01T13:14:34;2.10;;;1.83;;
11829;SDS011;5972;42.134;24.718;2023-03-01T13:20:14;3.80;;;3.23;;
11829;SDS011;5972;42.134;24.718;2023-03-01T13:22:43;7.43;;;3.40;;
11829;SDS011;5972;42.134;24.718;2023-03-01T13:25:14;4.70;;;3.60;;
11829;SDS011;5972;42.134;24.718;2023-03-01T13:27:43;6.90;;;5.30;;
11829;SDS011;5972;42.134;24.718;2023-03-01T13:36:10;10.53;;;6.60;;
11829;SDS011;5972;42.134;24.718;2023-03-01T13:39:01;7.07;;;3.83;;
11829;SDS011;5972;42.134;24.718;2023-03-01T13:44:19;5.70;;;3.27;;
11829;SDS011;5972;42.134;24.718;2023-03-01T13:46:49;4.57;;;3.20;;
11829;SDS011;5972;42.134;24.718;2023-03-01T13:49:19;12.77;;;7.40;;
11829;SDS011;5972;42.134;24.718;2023-03-01T13:51:49;13.30;;;8.87;;
11829;SDS011;5972;42.134;24.718;2023-03-01T13:54:19;6.63;;;5.40;;
11829;SDS011;5972;42.134;24.718;2023-03-01T13:56:52;6.40;;;4.93;;
11829;SDS011;5972;42.134;24.718;2023-03-01T13:59:24;7.67;;;5.37;;
11829;SDS011;5972;42.134;24.718;2023-03-01T14:01:56;9.70;;;5.17;;
11829;SDS011;5972;42.134;24.718;2023-03-01T14:04:27;5.63;;;3.80;;
11829;SDS011;5972;42.134;24.718;2023-03-01T14:07:08;7.07;;;4.97;;
11829;SDS011;5972;42.134;24.718;2023-03-01T14:09:37;6.70;;;5.30;;
11829;SDS011;5972;42.134;24.718;2023-03-01T14:12:12;6.73;;;5.10;;
11829;SDS011;5972;42.134;24.718;2023-03-01T14:14:52;16.60;;;15.10;;
11829;SDS011;5972;42.134;24.718;2023-03-01T14:17:38;12.17;;;9.17;;
11829;SDS011;5972;42.134;24.718;2023-03-01T14:20:16;10.93;;;9.37;;
11829;SDS011;5972;42.134;24.718;2023-03-01T14:22:46;10.00;;;9.00;;
11829;SDS011;5972;42.134;24.718;2023-03-01T14:25:25;11.27;;;8.37;;
11829;SDS011;5972;42.134;24.718;2023-03-01T14:27:56;11.17;;;10.00;;
11829;SDS011;5972;42.134;24.718;2023-03-01T14:30:26;12.03;;;9.17;;
11829;SDS011;5972;42.134;24.718;2023-03-01T14:32:57;10.37;;;8.83;;
11829;SDS011;5972;42.134;24.718;2023-03-01T14:35:27;12.40;;;9.13;;
11829;SDS011;5972;42.134;24.718;2023-03-01T14:37:55;11.40;;;8.33;;
11829;SDS011;5972;42.134;24.718;2023-03-01T14:40:23;10.03;;;7.23;;
11829;SDS011;5972;42.134;24.718;2023-03-01T14:42:54;14.37;;;8.70;;
11829;SDS011;5972;42.134;24.718;2023-03-01T14:45:25;7.03;;;5.50;;
11829;SDS011;5972;42.134;24.718;2023-03-01T14:47:58;6.03;;;5.13;;
11829;SDS011;5972;42.134;24.718;2023-03-01T14:50:33;9.77;;;4.57;;
11829;SDS011;5972;42.134;24.718;2023-03-01T14:53:06;7.67;;;5.93;;
11829;SDS011;5972;42.134;24.718;2023-03-01T14:55:41;11.50;;;6.80;;
11829;SDS011;5972;42.134;24.718;2023-03-01T14:58:13;9.20;;;5.87;;
11829;SDS011;5972;42.134;24.718;2023-03-01T15:00:51;6.77;;;4.93;;
11829;SDS011;5972;42.134;24.718;2023-03-01T15:03:25;5.40;;;4.13;;
11829;SDS011;5972;42.134;24.718;2023-03-01T15:05:58;4.80;;;4.40;;
11829;SDS011;5972;42.134;24.718;2023-03-01T15:08:27;9.53;;;5.30;;
11829;SDS011;5972;42.134;24.718;2023-03-01T15:10:59;7.40;;;5.83;;
11829;SDS011;5972;42.134;24.718;2023-03-01T15:13:29;10.33;;;6.70;;
11829;SDS011;5972;42.134;24.718;2023-03-01T15:16:02;12.97;;;7.53;;
11829;SDS011;5972;42.134;24.718;2023-03-01T15:18:31;18.70;;;10.70;;
11829;SDS011;5972;42.134;24.718;2023-03-01T15:21:06;11.33;;;9.43;;
11829;SDS011;5972;42.134;24.718;2023-03-01T15:23:35;8.80;;;7.27;;
11829;SDS011;5972;42.134;24.718;2023-03-01T15:26:05;8.73;;;6.07;;
11829;SDS011;5972;42.134;24.718;2023-03-01T15:28:49;5.20;;;4.70;;
11829;SDS011;5972;42.134;24.718;2023-03-01T15:31:18;6.03;;;4.33;;
11829;SDS011;5972;42.134;24.718;2023-03-01T15:33:48;14.33;;;6.20;;
11829;SDS011;5972;42.134;24.718;2023-03-01T15:36:35;10.80;;;6.13;;